CST,Max TemperatureF,Mean TemperatureF,Min TemperatureF,Max Dew PointF,MeanDew PointF,Min DewpointF,Max Humidity, Mean Humidity, Min Humidity, Max Sea Level PressureIn, Mean Sea Level PressureIn, Min Sea Level PressureIn, Max VisibilityMiles, Mean VisibilityMiles, Min VisibilityMiles, Max Wind SpeedMPH, Mean Wind SpeedMPH, Max Gust SpeedMPH,PrecipitationIn, CloudCover, Events, WindDirDegrees
2012-11-1,69,52,35,40,37,30,89,62,35,30.02,29.97,29.90,10,9,5,18,6,22,0.00,0,,347
2012-11-2,61,51,40,36,31,30,70,51,32,30.01,29.97,29.88,10,10,9,18,9,23,0.00,0,,89
2012-11-3,58,45,31,31,29,26,85,61,36,30.22,30.15,30.02,10,10,10,15,7,17,0.00,0,,351
2012-11-4,62,46,29,45,34,25,86,61,36,30.24,30.15,30.03,10,10,8,16,5,20,0.07,3,Rain,162
2012-11-5,49,46,42,46,42,37,93,88,82,30.14,30.06,29.99,10,5,2,20,8,23,0.12,8,Rain,1
2012-11-6,58,48,38,41,36,29,93,65,36,30.11,30.04,29.99,10,8,3,26,9,33,T,4,,264
2012-11-7,55,44,33,33,30,28,82,60,38,30.21,30.13,30.08,10,10,10,13,4,16,0.00,0,,307
2012-11-8,69,52,35,41,36,31,82,57,31,30.12,29.98,29.88,10,10,10,22,10,25,0.00,0,,161
2012-11-9,75,62,49,57,49,40,77,63,49,29.88,29.80,29.73,10,10,10,20,13,25,0.00,0,,170
2012-11-10,75,70,65,58,54,50,73,61,49,29.73,29.69,29.63,10,10,10,35,21,45,T,2,Rain,187
2012-11-11,69,48,27,56,37,18,93,73,53,30.25,29.87,29.66,10,7,2,36,13,47,1.60,6,Rain-Snow-Thunderstorm,296
2012-11-12,44,34,24,25,20,17,84,61,37,30.45,30.36,30.26,10,10,10,24,8,32,0.00,0,,258
2012-11-13,57,39,21,33,28,20,100,66,32,30.45,30.40,30.33,10,10,8,12,4,14,0.00,0,,182
2012-11-14,58,43,28,32,28,24,92,60,28,30.41,30.34,30.27,10,10,10,15,6,18,0.00,0,,177
2012-11-15,57,44,31,37,32,27,89,66,43,30.42,30.32,30.26,10,10,10,46,3,94,0.00,2,,191
2012-11-16,59,43,26,38,32,25,92,65,37,30.49,30.42,30.37,10,10,7,10,3,12,0.00,0,,57
2012-11-17,62,46,30,34,31,28,92,61,29,30.38,30.33,30.26,10,9,4,23,8,28,0.00,0,,169
2012-11-18,63,52,40,35,32,29,70,52,34,30.27,30.20,30.13,10,10,10,20,11,23,0.00,2,,169
2012-11-19,66,53,40,45,41,33,86,66,45,30.12,30.09,30.04,10,10,10,20,9,24,0.00,0,,202
2012-11-20,64,48,31,40,35,30,96,70,43,30.23,30.17,30.12,10,5,0,9,1,13,0.00,0,Fog,179
2012-11-21,74,52,30,43,34,28,96,63,29,30.20,30.14,29.93,10,5,0,22,9,44,0.00,0,Fog-Snow,180
2012-11-22,72,55,38,51,41,31,76,55,34,30.25,29.94,29.81,10,10,8,30,14,36,0.00,0,,241
2012-11-23,44,32,19,31,14,8,70,50,29,30.52,30.44,30.26,10,10,10,37,13,44,0.00,0,,317
2012-11-24,47,32,17,24,17,11,84,58,31,30.45,30.18,29.90,10,10,10,21,8,25,0.00,0,,175
2012-11-25,55,40,25,30,26,20,92,65,38,30.11,29.99,29.90,10,10,10,15,6,17,0.00,0,,25
2012-11-26,37,26,14,26,21,9,78,65,52,30.51,30.34,30.12,10,10,5,24,10,28,T,2,Snow,14
2012-11-27,40,25,10,17,13,7,88,61,33,30.50,30.40,30.29,10,10,7,15,4,17,0.00,0,,187
2012-11-28,52,33,14,28,22,12,92,65,38,30.44,30.33,30.19,10,9,2,10,4,13,0.00,0,,174
2012-11-29,59,43,26,38,31,21,89,68,47,30.18,30.05,29.97,10,10,9,15,4,18,0.00,0,,192
2012-11-30,54,40,26,35,30,25,92,69,46,30.11,30.05,30.01,10,8,2,9,2,9,0.00,0,,209